sensor_id;sensor_type;location;lat;lon;timestamp;P1;durP1;ratioP1;P2;durP2;ratioP2
44130;SDS011;29792;48.726;9.248;2023-12-29T00:01:43;2.35;;;1.33;;
44130;SDS011;29792;48.726;9.248;2023-12-29T00:04:09;2.33;;;1.10;;
44130;SDS011;29792;48.726;9.248;2023-12-29T00:06:37;1.40;;;1.23;;
44130;SDS011;29792;48.726;9.248;2023-12-29T00:09:03;1.40;;;0.90;;
44130;SDS011;29792;48.726;9.248;2023-12-29T00:11:28;1.63;;;1.48;;
44130;SDS011;29792;48.726;9.248;2023-12-29T00:13:53;2.28;;;1.52;;
44130;SDS011;29792;48.726;9.248;2023-12-29T00:16:18;2.85;;;1.40;;
44130;SDS011;29792;48.726;9.248;2023-12-29T00:18:44;1.73;;;1.02;;
44130;SDS011;29792;48.726;9.248;2023-12-29T00:21:09;3.80;;;1.38;;
44130;SDS011;29792;48.726;9.248;2023-12-29T00:23:34;2.45;;;1.42;;
44130;SDS011;29792;48.726;9.248;2023-12-29T00:25:59;2.03;;;1.55;;
44130;SDS011;29792;48.726;9.248;2023-12-29T00:28:25;1.50;;;1.00;;
44130;SDS011;29792;48.726;9.248;2023-12-29T00:30:50;1.33;;;1.10;;
44130;SDS011;29792;48.726;9.248;2023-12-29T00:33:15;2.08;;;1.88;;
44130;SDS011;29792;48.726;9.248;2023-12-29T00:35:40;1.60;;;1.27;;
44130;SDS011;29792;48.726;9.248;2023-12-29T00:38:06;2.20;;;1.55;;
44130;SDS011;29792;48.726;9.248;2023-12-29T00:40:31;1.65;;;1.27;;
44130;SDS011;29792;48.726;9.248;2023-12-29T00:42:57;1.45;;;1.35;;
44130;SDS011;29792;48.726;9.248;2023-12-29T00:45:23;2.72;;;1.40;;
44130;SDS011;29792;48.726;9.248;2023-12-29T00:47:48;2.58;;;1.73;;
44130;SDS011;29792;48.726;9.248;2023-12-29T00:50:15;2.15;;;1.75;;
44130;SDS011;29792;48.726;9.248;2023-12-29T00:52:41;2.00;;;1.50;;
44130;SDS011;29792;48.726;9.248;2023-12-29T00:55:06;2.22;;;1.20;;
44130;SDS011;29792;48.726;9.248;2023-12-29T00:57:31;2.20;;;1.85;;
44130;SDS011;29792;48.726;9.248;2023-12-29T00:59:59;2.88;;;1.67;;
44130;SDS011;29792;48.726;9.248;2023-12-29T01:02:25;1.88;;;1.67;;
44130;SDS011;29792;48.726;9.248;2023-12-29T01:04:50;3.45;;;1.77;;
44130;SDS011;29792;48.726;9.248;2023-12-29T01:07:15;1.60;;;1.35;;
44130;SDS011;29792;48.726;9.248;2023-12-29T01:09:40;4.35;;;1.80;;
44130;SDS011;29792;48.726;9.248;2023-12-29T01:12:06;1.73;;;1.52;;
44130;SDS011;29792;48.726;9.248;2023-12-29T01:14:31;2.22;;;1.42;;
44130;SDS011;29792;48.726;9.248;2023-12-29T01:16:57;2.00;;;1.48;;
44130;SDS011;29792;48.726;9.248;2023-12-29T01:19:22;1.88;;;1.20;;
44130;SDS011;29792;48.726;9.248;2023-12-29T01:21:47;2.33;;;2.10;;
44130;SDS011;29792;48.726;9.248;2023-12-29T01:24:12;2.75;;;1.65;;
44130;SDS011;29792;48.726;9.248;2023-12-29T01:26:38;1.75;;;1.50;;
44130;SDS011;29792;48.726;9.248;2023-12-29T01:29:06;2.15;;;1.75;;
44130;SDS011;29792;48.726;9.248;2023-12-29T01:31:32;2.08;;;1.88;;
44130;SDS011;29792;48.726;9.248;2023-12-29T01:33:57;2.55;;;1.65;;
44130;SDS011;29792;48.726;9.248;2023-12-29T01:36:23;2.65;;;1.92;;
44130;SDS011;29792;48.726;9.248;2023-12-29T01:38:48;2.45;;;2.00;;
44130;SDS011;29792;48.726;9.248;2023-12-29T01:41:14;2.17;;;1.77;;
44130;SDS011;29792;48.726;9.248;2023-12-29T01:46:31;3.72;;;1.98;;
44130;SDS011;29792;48.726;9.248;2023-12-29T01:48:58;2.78;;;1.55;;
44130;SDS011;29792;48.726;9.248;2023-12-29T01:51:24;1.83;;;1.48;;
44130;SDS011;29792;48.726;9.248;2023-12-29T01:53:52;4.00;;;2.38;;
44130;SDS011;29792;48.726;9.248;2023-12-29T01:56:19;1.75;;;1.65;;
44130;SDS011;29792;48.726;9.248;2023-12-29T01:58:45;2.50;;;1.85;;
44130;SDS011;29792;48.726;9.248;2023-12-29T02:01:12;1.88;;;1.65;;
44130;SDS011;29792;48.726;9.248;2023-12-29T02:03:39;2.03;;;1.60;;
44130;SDS011;29792;48.726;9.248;2023-12-29T02:06:04;2.13;;;1.92;;
44130;SDS011;29792;48.726;9.248;2023-12-29T02:08:31;3.63;;;2.20;;
44130;SDS011;29792;48.726;9.248;2023-12-29T02:10:57;2.70;;;1.85;;
44130;SDS011;29792;48.726;9.248;2023-12-29T02:13:23;2.10;;;1.90;;
44130;SDS011;29792;48.726;9.248;2023-12-29T02:15:49;2.30;;;2.05;;
44130;SDS011;29792;48.726;9.248;2023-12-29T02:18:17;2.25;;;1.92;;
44130;SDS011;29792;48.726;9.248;2023-12-29T02:20:45;2.15;;;1.95;;
44130;SDS011;29792;48.726;9.248;2023-12-29T02:23:11;2.60;;;2.28;;
44130;SDS011;29792;48.726;9.248;2023-12-29T02:25:36;4.20;;;1.98;;
44130;SDS011;29792;48.726;9.248;2023-12-29T02:28:04;3.38;;;2.25;;
44130;SDS011;29792;48.726;9.248;2023-12-29T02:31:01;3.78;;;2.85;;
44130;SDS011;29792;48.726;9.248;2023-12-29T02:33:32;2.25;;;2.05;;
44130;SDS011;29792;48.726;9.248;2023-12-29T02:36:03;1.90;;;1.63;;
44130;SDS011;29792;48.726;9.248;2023-12-29T02:38:29;3.10;;;2.30;;
44130;SDS011;29792;48.726;9.248;2023-12-29T02:40:56;1.92;;;1.73;;
44130;SDS011;29792;48.726;9.248;2023-12-29T02:43:21;3.10;;;2.10;;
44130;SDS011;29792;48.726;9.248;2023-12-29T02:45:47;2.40;;;2.20;;
44130;SDS011;29792;48.726;9.248;2023-12-29T02:48:12;3.30;;;2.13;;
44130;SDS011;29792;48.726;9.248;2023-12-29T02:50:37;2.88;;;2.65;;
44130;SDS011;29792;48.726;9.248;2023-12-29T02:53:03;3.08;;;2.85;;
44130;SDS011;29792;48.726;9.248;2023-12-29T02:55:29;2.83;;;2.00;;
44130;SDS011;29792;48.726;9.248;2023-12-29T02:57:54;2.17;;;1.88;;
44130;SDS011;29792;48.726;9.248;2023-12-29T03:00:19;1.83;;;1.63;;
44130;SDS011;29792;48.726;9.248;2023-12-29T03:02:45;2.95;;;2.55;;
44130;SDS011;29792;48.726;9.248;2023-12-29T03:05:10;3.97;;;2.15;;
44130;SDS011;29792;48.726;9.248;2023-12-29T03:07:36;3.55;;;3.00;;
44130;SDS011;29792;48.726;9.248;2023-12-29T03:10:01;4.28;;;2.85;;
44130;SDS011;29792;48.726;9.248;2023-12-29T03:12:27;5.25;;;2.72;;
44130;SDS011;29792;48.726;9.248;2023-12-29T03:14:52;6.25;;;2.90;;
44130;SDS011;29792;48.726;9.248;2023-12-29T03:17:17;2.55;;;2.30;;
44130;SDS011;29792;48.726;9.248;2023-12-29T03:19:42;2.60;;;2.00;;
44130;SDS011;29792;48.726;9.248;2023-12-29T03:22:08;2.60;;;2.38;;
44130;SDS011;29792;48.726;9.248;2023-12-29T03:24:34;2.28;;;2.03;;
44130;SDS011;29792;48.726;9.248;2023-12-29T03:26:59;2.33;;;2.10;;
44130;SDS011;29792;48.726;9.248;2023-12-29T03:29:24;2.53;;;2.20;;
44130;SDS011;29792;48.726;9.248;2023-12-29T03:31:50;2.58;;;2.22;;
44130;SDS011;29792;48.726;9.248;2023-12-29T03:34:15;2.90;;;2.60;;
44130;SDS011;29792;48.726;9.248;2023-12-29T03:36:40;2.42;;;2.22;;
44130;SDS011;29792;48.726;9.248;2023-12-29T03:39:05;3.47;;;2.50;;
44130;SDS011;29792;48.726;9.248;2023-12-29T03:41:31;2.30;;;2.10;;
44130;SDS011;29792;48.726;9.248;2023-12-29T03:43:56;2.55;;;2.05;;
44130;SDS011;29792;48.726;9.248;2023-12-29T03:46:21;3.25;;;2.28;;
44130;SDS011;29792;48.726;9.248;2023-12-29T03:48:48;3.47;;;2.17;;
44130;SDS011;29792;48.726;9.248;2023-12-29T03:51:14;4.45;;;1.88;;
44130;SDS011;29792;48.726;9.248;2023-12-29T03:53:40;2.15;;;1.70;;
44130;SDS011;29792;48.726;9.248;2023-12-29T03:56:06;3.10;;;1.98;;
44130;SDS011;29792;48.726;9.248;2023-12-29T03:58:33;2.72;;;1.70;;
44130;SDS011;29792;48.726;9.248;2023-12-29T04:00:58;2.95;;;2.10;;
44130;SDS011;29792;48.726;9.248;2023-12-29T04:03:24;3.95;;;2.08;;
44130;SDS011;29792;48.726;9.248;2023-12-29T04:05:49;3.72;;;2.65;;
44130;SDS011;29792;48.726;9.248;2023-12-29T04:08:14;4.10;;;1.80;;
44130;SDS011;29792;48.726;9.248;2023-12-29T04:10:39;2.33;;;2.08;;
44130;SDS011;29792;48.726;9.248;2023-12-29T04:13:05;2.72;;;2.38;;
44130;SDS011;29792;48.726;9.248;2023-12-29T04:15:30;2.03;;;1.83;;
44130;SDS011;29792;48.726;9.248;2023-12-29T04:17:55;2.03;;;1.83;;
44130;SDS011;29792;48.726;9.248;2023-12-29T04:20:21;2.35;;;1.70;;
44130;SDS011;29792;48.726;9.248;2023-12-29T04:22:46;2.72;;;2.17;;
44130;SDS011;29792;48.726;9.248;2023-12-29T04:25:11;2.50;;;1.92;;
44130;SDS011;29792;48.726;9.248;2023-12-29T04:27:37;3.22;;;2.50;;
44130;SDS011;29792;48.726;9.248;2023-12-29T04:30:02;2.55;;;1.98;;
44130;SDS011;29792;48.726;9.248;2023-12-29T04:32:28;4.88;;;2.13;;
44130;SDS011;29792;48.726;9.248;2023-12-29T04:34:53;2.40;;;1.80;;
44130;SDS011;29792;48.726;9.248;2023-12-29T04:37:18;2.45;;;2.08;;
44130;SDS011;29792;48.726;9.248;2023-12-29T04:39:43;5.07;;;2.28;;
44130;SDS011;29792;48.726;9.248;2023-12-29T04:42:09;2.15;;;1.77;;
44130;SDS011;29792;48.726;9.248;2023-12-29T04:44:34;1.95;;;1.67;;
44130;SDS011;29792;48.726;9.248;2023-12-29T04:46:59;2.42;;;1.95;;
44130;SDS011;29792;48.726;9.248;2023-12-29T04:49:24;2.25;;;1.92;;
44130;SDS011;29792;48.726;9.248;2023-12-29T04:51:50;3.20;;;2.03;;
44130;SDS011;29792;48.726;9.248;2023-12-29T04:54:15;3.53;;;2.72;;
44130;SDS011;29792;48.726;9.248;2023-12-29T04:56:40;2.78;;;1.98;;
44130;SDS011;29792;48.726;9.248;2023-12-29T04:59:05;2.40;;;2.20;;
44130;SDS011;29792;48.726;9.248;2023-12-29T05:01:31;3.42;;;2.17;;
44130;SDS011;29792;48.726;9.248;2023-12-29T05:03:56;3.28;;;1.83;;
44130;SDS011;29792;48.726;9.248;2023-12-29T05:06:21;3.90;;;2.33;;
44130;SDS011;29792;48.726;9.248;2023-12-29T05:08:46;3.30;;;2.13;;
44130;SDS011;29792;48.726;9.248;2023-12-29T05:11:12;4.05;;;2.20;;
44130;SDS011;29792;48.726;9.248;2023-12-29T05:13:37;3.53;;;2.28;;
44130;SDS011;29792;48.726;9.248;2023-12-29T05:16:03;3.53;;;2.35;;
44130;SDS011;29792;48.726;9.248;2023-12-29T05:18:28;2.38;;;2.00;;
44130;SDS011;29792;48.726;9.248;2023-12-29T05:20:54;2.45;;;2.25;;
44130;SDS011;29792;48.726;9.248;2023-12-29T05:23:20;2.42;;;2.22;;
44130;SDS011;29792;48.726;9.248;2023-12-29T05:25:45;2.20;;;2.00;;
44130;SDS011;29792;48.726;9.248;2023-12-29T05:28:11;2.55;;;2.00;;
44130;SDS011;29792;48.726;9.248;2023-12-29T05:30:36;2.75;;;1.70;;
44130;SDS011;29792;48.726;9.248;2023-12-29T05:33:02;2.00;;;1.77;;
44130;SDS011;29792;48.726;9.248;2023-12-29T05:35:27;2.95;;;2.33;;
44130;SDS011;29792;48.726;9.248;2023-12-29T05:37:52;3.20;;;1.95;;
44130;SDS011;29792;48.726;9.248;2023-12-29T05:40:18;2.10;;;1.80;;
44130;SDS011;29792;48.726;9.248;2023-12-29T05:42:43;2.55;;;2.35;;
44130;SDS011;29792;48.726;9.248;2023-12-29T05:45:08;2.97;;;2.20;;
44130;SDS011;29792;48.726;9.248;2023-12-29T05:47:34;2.22;;;2.05;;
44130;SDS011;29792;48.726;9.248;2023-12-29T05:49:59;2.00;;;1.80;;
44130;SDS011;29792;48.726;9.248;2023-12-29T05:52:24;3.08;;;1.88;;
44130;SDS011;29792;48.726;9.248;2023-12-29T05:54:49;2.38;;;1.77;;
44130;SDS011;29792;48.726;9.248;2023-12-29T05:57:15;3.20;;;2.13;;
44130;SDS011;29792;48.726;9.248;2023-12-29T05:59:40;3.20;;;2.25;;
44130;SDS011;29792;48.726;9.248;2023-12-29T06:02:05;2.70;;;2.25;;
44130;SDS011;29792;48.726;9.248;2023-12-29T06:04:30;3.38;;;2.35;;
44130;SDS011;29792;48.726;9.248;2023-12-29T06:06:56;2.97;;;1.90;;
44130;SDS011;29792;48.726;9.248;2023-12-29T06:09:21;3.05;;;1.70;;
44130;SDS011;29792;48.726;9.248;2023-12-29T06:11:46;4.25;;;2.20;;
44130;SDS011;29792;48.726;9.248;2023-12-29T06:14:12;3.72;;;2.40;;
44130;SDS011;29792;48.726;9.248;2023-12-29T06:16:37;2.13;;;1.92;;
44130;SDS011;29792;48.726;9.248;2023-12-29T06:19:02;2.30;;;2.03;;
44130;SDS011;29792;48.726;9.248;2023-12-29T06:21:27;3.47;;;2.33;;
44130;SDS011;29792;48.726;9.248;2023-12-29T06:23:53;7.38;;;5.03;;
44130;SDS011;29792;48.726;9.248;2023-12-29T06:26:18;4.50;;;3.78;;
44130;SDS011;29792;48.726;9.248;2023-12-29T06:28:45;1.98;;;1.70;;
44130;SDS011;29792;48.726;9.248;2023-12-29T06:31:11;2.67;;;2.33;;
44130;SDS011;29792;48.726;9.248;2023-12-29T06:33:40;2.00;;;1.85;;
44130;SDS011;29792;48.726;9.248;2023-12-29T06:36:07;1.88;;;1.67;;
44130;SDS011;29792;48.726;9.248;2023-12-29T06:38:32;2.65;;;2.33;;
44130;SDS011;29792;48.726;9.248;2023-12-29T06:40:58;3.97;;;2.40;;
44130;SDS011;29792;48.726;9.248;2023-12-29T06:43:25;2.20;;;1.83;;
44130;SDS011;29792;48.726;9.248;2023-12-29T06:45:50;4.63;;;2.50;;
44130;SDS011;29792;48.726;9.248;2023-12-29T06:48:15;3.25;;;1.95;;
44130;SDS011;29792;48.726;9.248;2023-12-29T06:50:40;2.70;;;2.30;;
44130;SDS011;29792;48.726;9.248;2023-12-29T06:53:06;2.92;;;2.15;;
44130;SDS011;29792;48.726;9.248;2023-12-29T06:55:31;5.40;;;1.98;;
44130;SDS011;29792;48.726;9.248;2023-12-29T06:57:56;3.00;;;1.85;;
44130;SDS011;29792;48.726;9.248;2023-12-29T07:00:21;1.80;;;1.63;;
44130;SDS011;29792;48.726;9.248;2023-12-29T07:02:47;3.22;;;2.50;;
44130;SDS011;29792;48.726;9.248;2023-12-29T07:05:12;4.38;;;3.08;;
44130;SDS011;29792;48.726;9.248;2023-12-29T07:07:38;4.38;;;3.67;;
44130;SDS011;29792;48.726;9.248;2023-12-29T07:10:03;3.17;;;2.03;;
44130;SDS011;29792;48.726;9.248;2023-12-29T07:12:31;3.40;;;1.80;;
44130;SDS011;29792;48.726;9.248;2023-12-29T07:14:56;2.25;;;2.03;;
44130;SDS011;29792;48.726;9.248;2023-12-29T07:17:21;2.30;;;1.83;;
44130;SDS011;29792;48.726;9.248;2023-12-29T07:19:47;3.53;;;2.50;;
44130;SDS011;29792;48.726;9.248;2023-12-29T07:22:12;2.35;;;1.70;;
44130;SDS011;29792;48.726;9.248;2023-12-29T07:24:37;2.15;;;1.95;;
44130;SDS011;29792;48.726;9.248;2023-12-29T07:27:03;3.42;;;1.73;;
44130;SDS011;29792;48.726;9.248;2023-12-29T07:29:29;2.58;;;2.03;;
44130;SDS011;29792;48.726;9.248;2023-12-29T07:31:54;3.55;;;1.60;;
44130;SDS011;29792;48.726;9.248;2023-12-29T07:34:20;2.75;;;1.80;;
44130;SDS011;29792;48.726;9.248;2023-12-29T07:36:46;2.00;;;1.67;;
44130;SDS011;29792;48.726;9.248;2023-12-29T07:39:11;2.15;;;1.60;;
44130;SDS011;29792;48.726;9.248;2023-12-29T07:41:40;2.00;;;1.70;;
44130;SDS011;29792;48.726;9.248;2023-12-29T07:44:06;2.60;;;2.00;;
44130;SDS011;29792;48.726;9.248;2023-12-29T07:46:32;2.03;;;1.75;;
44130;SDS011;29792;48.726;9.248;2023-12-29T07:48:57;1.88;;;1.67;;
44130;SDS011;29792;48.726;9.248;2023-12-29T07:51:23;1.42;;;1.13;;
44130;SDS011;29792;48.726;9.248;2023-12-29T07:53:48;4.85;;;3.40;;
44130;SDS011;29792;48.726;9.248;2023-12-29T07:56:14;2.17;;;1.67;;
44130;SDS011;29792;48.726;9.248;2023-12-29T07:58:39;2.63;;;1.67;;
44130;SDS011;29792;48.726;9.248;2023-12-29T08:01:04;2.95;;;2.22;;
44130;SDS011;29792;48.726;9.248;2023-12-29T08:03:30;2.67;;;1.92;;
44130;SDS011;29792;48.726;9.248;2023-12-29T08:05:55;2.92;;;1.60;;
44130;SDS011;29792;48.726;9.248;2023-12-29T08:08:20;3.65;;;2.20;;
44130;SDS011;29792;48.726;9.248;2023-12-29T08:10:45;2.63;;;1.75;;
44130;SDS011;29792;48.726;9.248;2023-12-29T08:13:11;2.50;;;1.63;;
44130;SDS011;29792;48.726;9.248;2023-12-29T08:15:36;1.70;;;1.60;;
44130;SDS011;29792;48.726;9.248;2023-12-29T08:18:02;9.88;;;7.18;;
44130;SDS011;29792;48.726;9.248;2023-12-29T08:20:28;2.65;;;2.22;;
44130;SDS011;29792;48.726;9.248;2023-12-29T08:22:53;2.13;;;1.95;;
44130;SDS011;29792;48.726;9.248;2023-12-29T08:25:19;1.92;;;1.73;;
44130;SDS011;29792;48.726;9.248;2023-12-29T08:27:44;2.85;;;2.65;;
44130;SDS011;29792;48.726;9.248;2023-12-29T08:30:09;2.30;;;2.05;;
44130;SDS011;29792;48.726;9.248;2023-12-29T08:32:35;4.95;;;2.25;;
44130;SDS011;29792;48.726;9.248;2023-12-29T08:35:00;2.38;;;2.03;;
44130;SDS011;29792;48.726;9.248;2023-12-29T08:37:26;2.30;;;1.60;;
44130;SDS011;29792;48.726;9.248;2023-12-29T08:39:51;2.42;;;1.98;;
44130;SDS011;29792;48.726;9.248;2023-12-29T08:42:17;1.95;;;1.83;;
44130;SDS011;29792;48.726;9.248;2023-12-29T08:44:42;2.55;;;1.58;;
44130;SDS011;29792;48.726;9.248;2023-12-29T08:47:08;1.70;;;1.60;;
44130;SDS011;29792;48.726;9.248;2023-12-29T08:49:37;1.58;;;1.48;;
44130;SDS011;29792;48.726;9.248;2023-12-29T08:52:03;1.83;;;1.65;;
44130;SDS011;29792;48.726;9.248;2023-12-29T08:54:28;2.13;;;1.40;;
44130;SDS011;29792;48.726;9.248;2023-12-29T08:56:53;1.67;;;1.50;;
44130;SDS011;29792;48.726;9.248;2023-12-29T08:59:19;2.80;;;1.30;;
44130;SDS011;29792;48.726;9.248;2023-12-29T09:01:44;1.58;;;1.23;;
44130;SDS011;29792;48.726;9.248;2023-12-29T09:04:09;1.70;;;1.30;;
44130;SDS011;29792;48.726;9.248;2023-12-29T09:06:34;2.28;;;1.42;;
44130;SDS011;29792;48.726;9.248;2023-12-29T09:09:00;2.70;;;1.20;;
44130;SDS011;29792;48.726;9.248;2023-12-29T09:11:25;1.40;;;0.90;;
44130;SDS011;29792;48.726;9.248;2023-12-29T09:13:51;1.98;;;1.40;;
44130;SDS011;29792;48.726;9.248;2023-12-29T09:16:16;1.60;;;1.17;;
44130;SDS011;29792;48.726;9.248;2023-12-29T09:18:42;1.10;;;0.98;;
44130;SDS011;29792;48.726;9.248;2023-12-29T09:21:07;1.65;;;1.55;;
44130;SDS011;29792;48.726;9.248;2023-12-29T09:23:32;1.77;;;1.20;;
44130;SDS011;29792;48.726;9.248;2023-12-29T09:25:58;1.45;;;1.13;;
44130;SDS011;29792;48.726;9.248;2023-12-29T09:28:24;2.15;;;0.85;;
44130;SDS011;29792;48.726;9.248;2023-12-29T09:30:49;2.67;;;1.20;;
44130;SDS011;29792;48.726;9.248;2023-12-29T09:33:14;2.65;;;1.05;;
44130;SDS011;29792;48.726;9.248;2023-12-29T09:35:40;1.20;;;1.10;;
44130;SDS011;29792;48.726;9.248;2023-12-29T09:38:05;1.30;;;0.90;;
44130;SDS011;29792;48.726;9.248;2023-12-29T09:40:31;1.48;;;1.23;;
44130;SDS011;29792;48.726;9.248;2023-12-29T09:42:56;1.55;;;1.20;;
44130;SDS011;29792;48.726;9.248;2023-12-29T09:45:23;2.03;;;1.38;;
44130;SDS011;29792;48.726;9.248;2023-12-29T09:47:52;1.80;;;1.45;;
44130;SDS011;29792;48.726;9.248;2023-12-29T09:50:18;4.18;;;1.50;;
44130;SDS011;29792;48.726;9.248;2023-12-29T09:52:44;1.45;;;1.30;;
44130;SDS011;29792;48.726;9.248;2023-12-29T09:55:13;1.20;;;1.10;;
44130;SDS011;29792;48.726;9.248;2023-12-29T09:57:39;1.15;;;1.00;;
44130;SDS011;29792;48.726;9.248;2023-12-29T10:00:05;1.50;;;1.13;;
44130;SDS011;29792;48.726;9.248;2023-12-29T10:02:34;2.15;;;1.20;;
44130;SDS011;29792;48.726;9.248;2023-12-29T10:05:01;2.95;;;0.88;;
44130;SDS011;29792;48.726;9.248;2023-12-29T10:07:28;1.98;;;1.10;;
44130;SDS011;29792;48.726;9.248;2023-12-29T10:10:00;2.00;;;1.10;;
44130;SDS011;29792;48.726;9.248;2023-12-29T10:12:30;2.28;;;1.00;;
44130;SDS011;29792;48.726;9.248;2023-12-29T10:15:04;1.08;;;0.82;;
44130;SDS011;29792;48.726;9.248;2023-12-29T10:17:55;1.38;;;1.20;;
44130;SDS011;29792;48.726;9.248;2023-12-29T10:21:29;1.35;;;1.25;;
44130;SDS011;29792;48.726;9.248;2023-12-29T10:24:37;1.17;;;0.93;;
44130;SDS011;29792;48.726;9.248;2023-12-29T10:27:29;2.47;;;1.58;;
44130;SDS011;29792;48.726;9.248;2023-12-29T10:30:09;2.13;;;1.10;;
44130;SDS011;29792;48.726;9.248;2023-12-29T10:32:38;1.38;;;0.90;;
44130;SDS011;29792;48.726;9.248;2023-12-29T10:35:09;2.33;;;0.68;;
44130;SDS011;29792;48.726;9.248;2023-12-29T10:37:35;1.48;;;0.82;;
44130;SDS011;29792;48.726;9.248;2023-12-29T10:40:05;1.30;;;0.63;;
44130;SDS011;29792;48.726;9.248;2023-12-29T10:42:31;1.00;;;0.88;;
44130;SDS011;29792;48.726;9.248;2023-12-29T10:45:05;0.85;;;0.70;;
44130;SDS011;29792;48.726;9.248;2023-12-29T10:47:32;1.02;;;0.65;;
44130;SDS011;29792;48.726;9.248;2023-12-29T10:49:58;2.88;;;0.93;;
44130;SDS011;29792;48.726;9.248;2023-12-29T10:52:25;1.40;;;0.90;;
44130;SDS011;29792;48.726;9.248;2023-12-29T10:54:50;1.20;;;1.08;;
44130;SDS011;29792;48.726;9.248;2023-12-29T10:57:29;1.00;;;0.77;;
44130;SDS011;29792;48.726;9.248;2023-12-29T10:59:55;0.80;;;0.60;;
44130;SDS011;29792;48.726;9.248;2023-12-29T11:02:21;1.17;;;0.50;;
44130;SDS011;29792;48.726;9.248;2023-12-29T11:04:46;1.60;;;0.95;;
44130;SDS011;29792;48.726;9.248;2023-12-29T11:07:12;0.93;;;0.50;;
44130;SDS011;29792;48.726;9.248;2023-12-29T11:09:38;0.60;;;0.60;;
44130;SDS011;29792;48.726;9.248;2023-12-29T11:12:04;1.02;;;0.50;;
44130;SDS011;29792;48.726;9.248;2023-12-29T11:14:31;0.70;;;0.45;;
44130;SDS011;29792;48.726;9.248;2023-12-29T11:16:57;0.98;;;0.60;;
44130;SDS011;29792;48.726;9.248;2023-12-29T11:19:25;1.05;;;0.65;;
44130;SDS011;29792;48.726;9.248;2023-12-29T11:21:51;0.70;;;0.55;;
44130;SDS011;29792;48.726;9.248;2023-12-29T11:24:19;0.50;;;0.40;;
44130;SDS011;29792;48.726;9.248;2023-12-29T11:26:44;1.27;;;0.60;;
44130;SDS011;29792;48.726;9.248;2023-12-29T11:29:10;1.20;;;0.60;;
44130;SDS011;29792;48.726;9.248;2023-12-29T11:31:36;1.05;;;0.77;;
44130;SDS011;29792;48.726;9.248;2023-12-29T11:34:10;2.30;;;0.68;;
44130;SDS011;29792;48.726;9.248;2023-12-29T11:36:42;1.13;;;0.77;;
44130;SDS011;29792;48.726;9.248;2023-12-29T11:42:11;0.65;;;0.43;;
44130;SDS011;29792;48.726;9.248;2023-12-29T11:44:42;1.23;;;0.57;;
44130;SDS011;29792;48.726;9.248;2023-12-29T11:47:33;0.73;;;0.70;;
44130;SDS011;29792;48.726;9.248;2023-12-29T11:50:02;0.90;;;0.60;;
44130;SDS011;29792;48.726;9.248;2023-12-29T11:52:34;0.73;;;0.73;;
44130;SDS011;29792;48.726;9.248;2023-12-29T11:55:10;0.68;;;0.50;;
44130;SDS011;29792;48.726;9.248;2023-12-29T11:57:37;0.80;;;0.50;;
44130;SDS011;29792;48.726;9.248;2023-12-29T12:00:04;0.68;;;0.50;;
44130;SDS011;29792;48.726;9.248;2023-12-29T12:02:30;1.40;;;0.80;;
44130;SDS011;29792;48.726;9.248;2023-12-29T12:04:56;1.17;;;0.60;;
44130;SDS011;29792;48.726;9.248;2023-12-29T12:09:47;0.52;;;0.32;;
44130;SDS011;29792;48.726;9.248;2023-12-29T12:12:14;1.63;;;0.70;;
44130;SDS011;29792;48.726;9.248;2023-12-29T12:14:49;0.82;;;0.65;;
44130;SDS011;29792;48.726;9.248;2023-12-29T12:17:33;2.58;;;1.10;;
44130;SDS011;29792;48.726;9.248;2023-12-29T12:20:03;1.40;;;0.50;;
44130;SDS011;29792;48.726;9.248;2023-12-29T12:22:33;0.65;;;0.60;;
44130;SDS011;29792;48.726;9.248;2023-12-29T12:25:00;1.30;;;1.13;;
44130;SDS011;29792;48.726;9.248;2023-12-29T12:27:28;1.02;;;0.77;;
44130;SDS011;29792;48.726;9.248;2023-12-29T12:29:57;0.93;;;0.47;;
44130;SDS011;29792;48.726;9.248;2023-12-29T12:32:26;2.15;;;0.70;;
44130;SDS011;29792;48.726;9.248;2023-12-29T12:34:53;0.60;;;0.50;;
44130;SDS011;29792;48.726;9.248;2023-12-29T12:37:19;2.15;;;0.80;;
44130;SDS011;29792;48.726;9.248;2023-12-29T12:39:48;0.82;;;0.75;;
44130;SDS011;29792;48.726;9.248;2023-12-29T12:42:15;0.85;;;0.52;;
44130;SDS011;29792;48.726;9.248;2023-12-29T12:44:42;0.65;;;0.60;;
44130;SDS011;29792;48.726;9.248;2023-12-29T12:47:30;0.57;;;0.43;;
44130;SDS011;29792;48.726;9.248;2023-12-29T12:50:00;1.10;;;0.70;;
44130;SDS011;29792;48.726;9.248;2023-12-29T12:52:26;1.25;;;0.60;;
44130;SDS011;29792;48.726;9.248;2023-12-29T12:54:55;1.08;;;1.08;;
44130;SDS011;29792;48.726;9.248;2023-12-29T12:57:21;1.65;;;0.50;;
44130;SDS011;29792;48.726;9.248;2023-12-29T12:59:47;0.68;;;0.50;;
44130;SDS011;29792;48.726;9.248;2023-12-29T13:02:14;1.05;;;0.50;;
44130;SDS011;29792;48.726;9.248;2023-12-29T13:04:40;1.33;;;0.70;;
44130;SDS011;29792;48.726;9.248;2023-12-29T13:07:07;1.00;;;0.57;;
44130;SDS011;29792;48.726;9.248;2023-12-29T13:09:34;0.70;;;0.60;;
44130;SDS011;29792;48.726;9.248;2023-12-29T13:12:08;0.88;;;0.82;;
44130;SDS011;29792;48.726;9.248;2023-12-29T13:14:40;0.63;;;0.52;;
44130;SDS011;29792;48.726;9.248;2023-12-29T13:17:09;2.63;;;0.70;;
44130;SDS011;29792;48.726;9.248;2023-12-29T13:19:37;0.73;;;0.40;;
44130;SDS011;29792;48.726;9.248;2023-12-29T13:22:05;0.73;;;0.68;;
44130;SDS011;29792;48.726;9.248;2023-12-29T13:24:32;0.82;;;0.57;;
44130;SDS011;29792;48.726;9.248;2023-12-29T13:26:58;0.98;;;0.70;;
44130;SDS011;29792;48.726;9.248;2023-12-29T13:29:29;0.82;;;0.70;;
44130;SDS011;29792;48.726;9.248;2023-12-29T13:31:56;1.00;;;0.60;;
44130;SDS011;29792;48.726;9.248;2023-12-29T13:34:32;1.23;;;0.90;;
44130;SDS011;29792;48.726;9.248;2023-12-29T13:37:37;1.55;;;0.40;;
44130;SDS011;29792;48.726;9.248;2023-12-29T13:42:37;1.10;;;0.50;;
44130;SDS011;29792;48.726;9.248;2023-12-29T13:45:06;0.57;;;0.40;;
44130;SDS011;29792;48.726;9.248;2023-12-29T13:47:34;1.20;;;1.00;;
44130;SDS011;29792;48.726;9.248;2023-12-29T13:50:01;1.08;;;0.70;;
44130;SDS011;29792;48.726;9.248;2023-12-29T13:52:27;0.90;;;0.60;;
44130;SDS011;29792;48.726;9.248;2023-12-29T13:54:53;2.25;;;0.80;;
44130;SDS011;29792;48.726;9.248;2023-12-29T13:57:18;0.98;;;0.75;;
44130;SDS011;29792;48.726;9.248;2023-12-29T13:59:43;0.93;;;0.60;;
44130;SDS011;29792;48.726;9.248;2023-12-29T14:02:27;1.30;;;0.60;;
44130;SDS011;29792;48.726;9.248;2023-12-29T14:07:52;1.42;;;0.93;;
44130;SDS011;29792;48.726;9.248;2023-12-29T14:10:18;2.08;;;1.35;;
44130;SDS011;29792;48.726;9.248;2023-12-29T14:12:44;1.30;;;0.77;;
44130;SDS011;29792;48.726;9.248;2023-12-29T14:15:10;0.82;;;0.82;;
44130;SDS011;29792;48.726;9.248;2023-12-29T14:17:35;0.73;;;0.50;;
44130;SDS011;29792;48.726;9.248;2023-12-29T14:20:03;1.25;;;1.15;;
44130;SDS011;29792;48.726;9.248;2023-12-29T14:22:29;2.20;;;0.50;;
44130;SDS011;29792;48.726;9.248;2023-12-29T14:24:59;0.80;;;0.65;;
44130;SDS011;29792;48.726;9.248;2023-12-29T14:27:26;1.40;;;0.63;;
44130;SDS011;29792;48.726;9.248;2023-12-29T14:29:51;1.42;;;0.98;;
44130;SDS011;29792;48.726;9.248;2023-12-29T14:32:16;1.27;;;0.73;;
44130;SDS011;29792;48.726;9.248;2023-12-29T14:34:42;1.35;;;1.02;;
44130;SDS011;29792;48.726;9.248;2023-12-29T14:37:07;1.75;;;0.82;;
44130;SDS011;29792;48.726;9.248;2023-12-29T14:39:32;1.13;;;0.55;;
44130;SDS011;29792;48.726;9.248;2023-12-29T14:41:58;0.93;;;0.73;;
44130;SDS011;29792;48.726;9.248;2023-12-29T14:44:23;0.50;;;0.50;;
44130;SDS011;29792;48.726;9.248;2023-12-29T14:46:49;1.65;;;1.15;;
44130;SDS011;29792;48.726;9.248;2023-12-29T14:49:14;1.77;;;0.60;;
44130;SDS011;29792;48.726;9.248;2023-12-29T14:51:39;2.08;;;1.10;;
44130;SDS011;29792;48.726;9.248;2023-12-29T14:54:04;1.63;;;0.88;;
44130;SDS011;29792;48.726;9.248;2023-12-29T14:56:30;2.15;;;0.50;;
44130;SDS011;29792;48.726;9.248;2023-12-29T14:58:55;1.35;;;0.63;;
44130;SDS011;29792;48.726;9.248;2023-12-29T15:01:20;1.10;;;0.77;;